Time;durP1;ratioP1;P1;durP2;ratioP2;P2;SDS_P1;SDS_P2;PMS_P1;PMS_P2;Temp;Humidity;BMP_temperature;BMP_pressure;BME280_temperature;BME280_humidity;BME280_pressure;Samples;Min_cycle;Max_cycle;Signal;HPM_P1;HPM_P2
2022/09/27 00:01:14;;;;;;;11.48;6.97;;;14.20;99.90;;;;;;5029884;28;20028;-84
2022/09/27 00:03:40;;;;;;;11.52;6.78;;;14.10;99.90;;;;;;5035421;28;20036;-84
2022/09/27 00:06:21;;;;;;;13.02;8.07;;;14.20;99.90;;;;;;5027757;28;20025;-84
2022/09/27 00:08:47;;;;;;;11.52;6.95;;;14.30;99.90;;;;;;5027549;28;20731;-84
2022/09/27 00:11:32;;;;;;;9.57;5.93;;;14.30;99.90;;;;;;5033978;28;20033;-84
2022/09/27 00:13:59;;;;;;;9.73;5.97;;;14.30;99.90;;;;;;5026119;28;20049;-84
2022/09/27 00:16:27;;;;;;;11.50;6.72;;;14.20;99.90;;;;;;5028871;28;20060;-85
2022/09/27 00:18:56;;;;;;;11.77;6.68;;;14.00;99.90;;;;;;5028188;28;20146;-85
2022/09/27 00:21:22;;;;;;;11.95;7.50;;;14.00;99.90;;;;;;5031702;28;20388;-85
2022/09/27 00:23:48;;;;;;;10.48;6.95;;;14.10;99.90;;;;;;5032551;28;20025;-85
2022/09/27 00:26:13;;;;;;;11.05;7.20;;;14.20;99.90;;;;;;5029386;28;20026;-84
2022/09/27 00:28:39;;;;;;;13.02;8.23;;;14.30;99.90;;;;;;5036327;28;20048;-84
2022/09/27 00:31:21;;;;;;;9.88;6.97;;;14.20;99.90;;;;;;5031797;28;20026;-85
2022/09/27 00:33:49;;;;;;;10.32;7.13;;;14.30;99.90;;;;;;5031378;28;20045;-85
2022/09/27 00:36:15;;;;;;;10.00;6.72;;;14.30;99.90;;;;;;5048073;28;20040;-84
2022/09/27 00:38:41;;;;;;;10.70;7.00;;;14.30;99.90;;;;;;5050343;28;20104;-85
2022/09/27 00:41:15;;;;;;;9.90;7.22;;;14.30;99.90;;;;;;5038733;28;20125;-85
2022/09/27 00:44:03;;;;;;;10.10;7.07;;;14.30;99.90;;;;;;5033068;28;20033;-84
2022/09/27 00:46:37;;;;;;;10.80;6.53;;;14.20;99.90;;;;;;5032096;28;20034;-84
2022/09/27 00:49:23;;;;;;;12.50;7.68;;;14.30;99.90;;;;;;5032369;28;20031;-84
2022/09/27 00:51:56;;;;;;;13.13;6.88;;;14.30;99.90;;;;;;5031827;28;20037;-83
2022/09/27 00:54:25;;;;;;;10.15;6.72;;;14.30;99.90;;;;;;5030791;28;20491;-84
2022/09/27 00:56:52;;;;;;;9.90;7.22;;;14.30;99.90;;;;;;5038720;28;20037;-83
2022/09/27 00:59:38;;;;;;;14.88;7.78;;;14.30;99.90;;;;;;5033121;28;20091;-85
2022/09/27 01:02:06;;;;;;;10.52;7.25;;;14.40;99.90;;;;;;5031429;28;20025;-85
2022/09/27 01:04:33;;;;;;;9.25;6.40;;;14.40;99.90;;;;;;5031012;28;20468;-84
2022/09/27 01:06:59;;;;;;;12.05;7.05;;;14.30;99.90;;;;;;5030861;28;20025;-85
2022/09/27 01:09:25;;;;;;;12.27;7.38;;;14.20;99.90;;;;;;5040349;28;20029;-85
2022/09/27 01:12:15;;;;;;;12.40;8.73;;;14.20;99.90;;;;;;5030514;28;20479;-85
2022/09/27 01:14:51;;;;;;;12.38;7.97;;;14.10;99.90;;;;;;5029430;28;20102;-85
2022/09/27 01:17:38;;;;;;;14.38;8.20;;;14.10;99.90;;;;;;5030394;28;20038;-86
2022/09/27 01:20:33;;;;;;;11.48;7.82;;;14.10;99.90;;;;;;5031703;28;20387;-85
2022/09/27 01:23:17;;;;;;;11.35;7.38;;;14.10;99.90;;;;;;5029715;28;20045;-85
2022/09/27 01:26:00;;;;;;;9.98;6.80;;;14.00;99.90;;;;;;5031454;28;20037;-85
2022/09/27 01:28:47;;;;;;;9.40;6.40;;;14.10;99.90;;;;;;5034238;28;20220;-85
2022/09/27 01:31:40;;;;;;;9.18;6.45;;;14.20;99.90;;;;;;5032436;28;20065;-85
2022/09/27 01:34:43;;;;;;;11.98;7.40;;;14.10;99.90;;;;;;5030602;28;20033;-85
2022/09/27 01:37:12;;;;;;;13.15;7.85;;;14.10;99.90;;;;;;5036828;28;20433;-85
2022/09/27 01:39:56;;;;;;;11.32;7.70;;;14.20;99.90;;;;;;5037080;28;20033;-85
2022/09/27 01:42:25;;;;;;;14.75;8.30;;;14.10;99.90;;;;;;5030443;28;20029;-85
2022/09/27 01:45:07;;;;;;;12.95;8.10;;;14.10;99.90;;;;;;5032416;28;20758;-85
2022/09/27 01:48:05;;;;;;;11.38;7.93;;;14.00;99.90;;;;;;5028921;28;20025;-84
2022/09/27 01:50:45;;;;;;;12.05;8.25;;;14.00;99.90;;;;;;5035549;28;20029;-83
2022/09/27 01:53:21;;;;;;;11.43;7.53;;;14.10;99.90;;;;;;5029277;28;20038;-85
2022/09/27 01:55:50;;;;;;;11.02;6.75;;;13.90;99.90;;;;;;5031498;28;20033;-85
2022/09/27 01:58:18;;;;;;;10.07;6.60;;;13.90;99.90;;;;;;5029185;28;20040;-84
2022/09/27 02:00:48;;;;;;;10.40;6.60;;;13.70;99.90;;;;;;5030923;28;20036;-85
2022/09/27 02:03:38;;;;;;;7.22;5.22;;;13.80;99.90;;;;;;5032552;28;20067;-85
2022/09/27 02:06:12;;;;;;;11.65;5.82;;;13.80;99.90;;;;;;5035621;28;20045;-85
2022/09/27 02:08:43;;;;;;;15.70;7.63;;;13.70;99.90;;;;;;5032793;28;20036;-85
2022/09/27 02:11:11;;;;;;;13.35;8.88;;;13.60;99.90;;;;;;5032663;28;20534;-84
2022/09/27 02:13:57;;;;;;;11.27;7.22;;;13.60;99.90;;;;;;5029844;28;20057;-85
2022/09/27 02:16:28;;;;;;;10.43;7.00;;;13.60;99.90;;;;;;5031682;28;20037;-85
2022/09/27 02:19:08;;;;;;;7.95;5.40;;;13.70;99.90;;;;;;5028838;28;20472;-85
2022/09/27 02:21:57;;;;;;;9.50;6.22;;;13.60;99.90;;;;;;5030810;28;20037;-84
2022/09/27 02:24:36;;;;;;;9.07;5.95;;;13.70;99.90;;;;;;5036007;28;20553;-85
2022/09/27 02:27:26;;;;;;;9.32;6.40;;;13.70;99.90;;;;;;5031961;28;20033;-84
2022/09/27 02:30:13;;;;;;;12.38;7.50;;;13.70;99.90;;;;;;5033486;28;20479;-85
2022/09/27 02:32:40;;;;;;;11.77;6.68;;;13.70;99.90;;;;;;5031346;28;20029;-85
2022/09/27 02:35:28;;;;;;;15.02;8.52;;;13.60;99.90;;;;;;5030161;28;20027;-83
2022/09/27 02:37:55;;;;;;;11.43;8.05;;;13.60;99.90;;;;;;5028680;28;20075;-84
2022/09/27 02:40:22;;;;;;;13.77;8.85;;;13.70;99.90;;;;;;5029128;28;20122;-83
2022/09/27 02:42:47;;;;;;;13.63;8.40;;;13.70;99.90;;;;;;5029044;28;20087;-85
2022/09/27 02:45:15;;;;;;;11.05;7.90;;;13.80;99.90;;;;;;5029914;28;20100;-85
2022/09/27 02:47:55;;;;;;;11.73;7.15;;;13.90;99.90;;;;;;5028149;28;20028;-84
2022/09/27 02:50:58;;;;;;;10.68;6.53;;;13.90;99.90;;;;;;5029204;28;20029;-85
2022/09/27 02:53:47;;;;;;;12.82;8.05;;;13.90;99.90;;;;;;5028809;28;20045;-84
2022/09/27 02:56:13;;;;;;;10.90;6.38;;;13.90;99.90;;;;;;5031221;28;20653;-84
2022/09/27 02:58:41;;;;;;;9.23;6.30;;;13.80;99.90;;;;;;5028220;28;20026;-84
2022/09/27 03:01:42;;;;;;;6.88;4.72;;;13.70;99.90;;;;;;5031109;28;20033;-83
2022/09/27 03:04:46;;;;;;;9.13;5.43;;;13.70;99.90;;;;;;5027599;28;20033;-83
2022/09/27 03:07:13;;;;;;;9.82;5.03;;;13.70;99.90;;;;;;5029936;28;20053;-83
2022/09/27 03:09:43;;;;;;;8.65;5.15;;;13.70;99.90;;;;;;5024369;28;20029;-83
2022/09/27 03:12:09;;;;;;;6.53;4.50;;;13.70;99.90;;;;;;5024307;28;20025;-84
2022/09/27 03:14:34;;;;;;;8.02;4.95;;;13.70;99.90;;;;;;5025481;28;20052;-83
2022/09/27 03:17:01;;;;;;;8.57;4.85;;;13.60;99.90;;;;;;5022561;28;20053;-83
2022/09/27 03:19:27;;;;;;;7.65;4.78;;;13.40;99.90;;;;;;5026631;28;20040;-83
2022/09/27 03:21:53;;;;;;;8.38;4.88;;;13.30;99.90;;;;;;5022194;28;20038;-83
2022/09/27 03:24:18;;;;;;;7.97;5.57;;;13.10;99.90;;;;;;5027406;28;20021;-83
2022/09/27 03:26:44;;;;;;;7.75;5.30;;;13.00;99.90;;;;;;5022761;28;20031;-83
2022/09/27 03:29:10;;;;;;;8.27;5.53;;;13.00;99.90;;;;;;5023833;28;20284;-83
2022/09/27 03:31:35;;;;;;;7.95;5.35;;;13.00;99.90;;;;;;5028906;28;20383;-83
2022/09/27 03:34:01;;;;;;;9.38;4.95;;;12.90;99.90;;;;;;5023852;28;20041;-83
2022/09/27 03:36:27;;;;;;;9.25;5.65;;;12.80;99.90;;;;;;5024068;28;20457;-83
2022/09/27 03:38:53;;;;;;;9.50;5.93;;;12.80;99.90;;;;;;5030737;28;20111;-82
2022/09/27 03:41:19;;;;;;;8.00;5.30;;;12.80;99.90;;;;;;5024078;28;20435;-83
2022/09/27 03:43:45;;;;;;;8.55;5.70;;;12.60;99.90;;;;;;5026078;28;20057;-83
2022/09/27 03:46:10;;;;;;;8.40;5.90;;;12.80;99.90;;;;;;5025191;28;20112;-83
2022/09/27 03:48:36;;;;;;;11.25;5.95;;;13.00;99.90;;;;;;5025065;28;20029;-83
2022/09/27 03:51:03;;;;;;;8.30;5.63;;;13.10;99.90;;;;;;5024373;28;20037;-83
2022/09/27 03:53:29;;;;;;;10.65;5.65;;;13.20;99.90;;;;;;5026038;28;20025;-82
2022/09/27 03:55:55;;;;;;;7.70;5.22;;;13.00;99.90;;;;;;5028440;28;20353;-83
2022/09/27 03:58:20;;;;;;;10.63;5.95;;;13.00;99.90;;;;;;5026550;28;20029;-83
2022/09/27 04:00:46;;;;;;;10.88;6.80;;;12.80;99.90;;;;;;5026049;28;20029;-84
2022/09/27 04:03:12;;;;;;;11.23;7.63;;;12.70;99.90;;;;;;5024970;28;20105;-82
2022/09/27 04:05:38;;;;;;;10.55;7.13;;;12.70;99.90;;;;;;5023968;28;20553;-83
2022/09/27 04:08:05;;;;;;;10.52;7.30;;;12.60;99.90;;;;;;5026154;28;20113;-83
2022/09/27 04:10:31;;;;;;;11.68;6.80;;;12.70;99.90;;;;;;5026523;28;20472;-82
2022/09/27 04:12:56;;;;;;;10.43;6.78;;;12.80;99.90;;;;;;5024110;28;20041;-83
2022/09/27 04:15:22;;;;;;;9.55;6.47;;;12.90;99.90;;;;;;5026136;28;20132;-83
2022/09/27 04:17:48;;;;;;;7.90;5.45;;;12.90;99.90;;;;;;5032050;28;20025;-82
2022/09/27 04:20:14;;;;;;;9.27;6.43;;;13.10;99.90;;;;;;5026661;28;20539;-83
2022/09/27 04:22:41;;;;;;;9.45;6.22;;;13.10;99.90;;;;;;5026166;28;20021;-83
2022/09/27 04:25:08;;;;;;;9.25;6.03;;;13.20;99.90;;;;;;5024548;28;20025;-83
2022/09/27 04:27:34;;;;;;;9.25;6.45;;;13.20;99.90;;;;;;5026017;28;20055;-83
2022/09/27 04:30:00;;;;;;;8.10;5.88;;;13.10;99.90;;;;;;5026094;28;20025;-83
2022/09/27 04:32:25;;;;;;;7.40;4.93;;;13.00;99.90;;;;;;5027458;28;20036;-83
2022/09/27 04:37:35;;;;;;;9.73;6.25;;;12.90;99.90;;;;;;5026109;28;20039;-82
2022/09/27 04:40:03;;;;;;;8.32;5.75;;;12.90;99.90;;;;;;5032537;28;20025;-83
2022/09/27 04:42:28;;;;;;;9.02;5.70;;;13.00;99.90;;;;;;5026847;28;20033;-82
2022/09/27 04:44:54;;;;;;;9.43;5.53;;;13.10;99.90;;;;;;5031150;28;20148;-83
2022/09/27 04:47:20;;;;;;;11.68;5.30;;;13.10;99.90;;;;;;5025490;28;20045;-82
2022/09/27 04:49:46;;;;;;;8.35;5.40;;;13.00;99.90;;;;;;5024743;28;20030;-83
2022/09/27 04:52:14;;;;;;;9.65;5.40;;;13.00;99.90;;;;;;5031147;28;20677;-83
2022/09/27 04:54:40;;;;;;;8.90;6.35;;;13.10;99.90;;;;;;5024008;28;20037;-83
2022/09/27 04:57:06;;;;;;;7.80;5.68;;;13.10;99.90;;;;;;5029898;28;20098;-83
2022/09/27 04:59:31;;;;;;;8.93;4.75;;;13.10;99.90;;;;;;5024158;28;20392;-83
2022/09/27 05:01:59;;;;;;;7.43;5.25;;;13.20;99.90;;;;;;5025481;28;20025;-83
2022/09/27 05:04:26;;;;;;;8.43;4.70;;;13.30;99.90;;;;;;5024148;28;20090;-83
2022/09/27 05:06:51;;;;;;;6.93;4.82;;;13.30;99.90;;;;;;5030644;28;20233;-83
2022/09/27 05:09:17;;;;;;;7.15;4.38;;;13.30;99.90;;;;;;5025783;28;20583;-83
2022/09/27 05:11:43;;;;;;;8.05;4.57;;;13.20;99.90;;;;;;5028838;28;20025;-83
2022/09/27 05:14:08;;;;;;;6.68;4.35;;;13.20;99.90;;;;;;5028143;28;20049;-83
2022/09/27 05:16:35;;;;;;;6.18;4.22;;;13.30;99.90;;;;;;5025238;28;20029;-82
2022/09/27 05:19:02;;;;;;;8.10;4.85;;;13.30;99.90;;;;;;5024084;28;20040;-82
2022/09/27 05:21:28;;;;;;;7.68;5.15;;;13.20;99.90;;;;;;5029532;28;20059;-82
2022/09/27 05:23:53;;;;;;;7.85;4.32;;;13.10;99.90;;;;;;5028437;28;20033;-81
2022/09/27 05:26:19;;;;;;;10.32;5.50;;;13.20;99.90;;;;;;5023590;28;20017;-80
2022/09/27 05:28:46;;;;;;;9.38;6.57;;;13.30;99.90;;;;;;5029435;28;20060;-80
2022/09/27 05:31:13;;;;;;;9.70;6.00;;;13.30;99.90;;;;;;5034982;28;20509;-80
2022/09/27 05:33:39;;;;;;;9.75;6.22;;;13.10;99.90;;;;;;5034234;28;20127;-80
2022/09/27 05:36:05;;;;;;;8.82;6.18;;;13.10;99.90;;;;;;5032013;28;20391;-80
2022/09/27 05:38:31;;;;;;;10.35;7.18;;;13.10;99.90;;;;;;5035172;28;20056;-79
2022/09/27 05:40:57;;;;;;;14.93;9.80;;;13.00;99.90;;;;;;5035920;28;20185;-80
2022/09/27 05:43:23;;;;;;;14.82;8.25;;;13.00;99.90;;;;;;5033574;28;20029;-80
2022/09/27 05:45:51;;;;;;;10.18;6.90;;;13.00;99.90;;;;;;5033737;28;20192;-80
2022/09/27 05:48:17;;;;;;;10.52;7.05;;;13.00;99.90;;;;;;5036873;28;20379;-80
2022/09/27 05:50:43;;;;;;;13.13;7.85;;;13.10;99.90;;;;;;5033972;28;20034;-80
2022/09/27 05:53:10;;;;;;;11.50;6.47;;;13.10;99.90;;;;;;5035320;28;20183;-80
2022/09/27 05:55:35;;;;;;;10.20;7.25;;;13.10;99.90;;;;;;5033392;28;20858;-80
2022/09/27 05:58:04;;;;;;;10.13;7.03;;;13.10;99.90;;;;;;5032001;28;20044;-80
2022/09/27 06:00:30;;;;;;;10.15;6.70;;;13.00;99.90;;;;;;5031674;28;20037;-80
2022/09/27 06:02:58;;;;;;;8.93;6.15;;;13.10;99.90;;;;;;5033208;28;20171;-80
2022/09/27 06:05:25;;;;;;;12.43;6.93;;;13.20;99.90;;;;;;5033147;28;20064;-80
2022/09/27 06:07:52;;;;;;;10.38;6.97;;;13.10;99.90;;;;;;5033521;28;20083;-80
2022/09/27 06:10:18;;;;;;;13.18;7.85;;;13.20;99.90;;;;;;5037580;28;20199;-80
2022/09/27 06:12:45;;;;;;;10.93;7.05;;;13.20;99.90;;;;;;5036883;28;20128;-80
2022/09/27 06:15:11;;;;;;;10.73;6.38;;;13.30;99.90;;;;;;5027920;28;20132;-81
2022/09/27 06:17:37;;;;;;;10.98;7.13;;;13.30;99.90;;;;;;5030446;28;20117;-82
2022/09/27 06:20:03;;;;;;;9.10;6.32;;;13.30;99.90;;;;;;5023724;28;20559;-74
2022/09/27 06:22:29;;;;;;;9.15;6.25;;;13.40;99.90;;;;;;5023262;28;20033;-76
2022/09/27 06:24:55;;;;;;;7.88;5.45;;;13.40;99.90;;;;;;5024980;28;20403;-77
2022/09/27 06:27:20;;;;;;;12.32;8.45;;;13.40;99.90;;;;;;5024256;28;20041;-77
2022/09/27 06:29:46;;;;;;;15.00;10.30;;;13.40;99.90;;;;;;5027881;28;20033;-77
2022/09/27 06:32:12;;;;;;;12.80;8.90;;;13.60;99.90;;;;;;5023468;28;20463;-77
2022/09/27 06:34:38;;;;;;;10.70;6.85;;;13.60;99.90;;;;;;5032283;28;20674;-77
2022/09/27 06:37:04;;;;;;;10.02;5.95;;;13.50;99.90;;;;;;5026185;28;20025;-77
2022/09/27 06:39:32;;;;;;;8.82;5.65;;;13.40;99.90;;;;;;5024179;28;20052;-77
2022/09/27 06:41:57;;;;;;;9.65;6.78;;;13.40;99.90;;;;;;5025034;28;20025;-77
2022/09/27 06:44:24;;;;;;;14.63;7.45;;;13.30;99.90;;;;;;5028178;28;20034;-76
2022/09/27 06:46:51;;;;;;;9.20;6.32;;;13.40;99.90;;;;;;5030931;28;20044;-78
2022/09/27 06:49:18;;;;;;;8.80;5.97;;;13.40;99.90;;;;;;5035996;28;20048;-81
2022/09/27 06:51:44;;;;;;;10.35;6.75;;;13.40;99.90;;;;;;5024221;28;20048;-79
2022/09/27 06:54:10;;;;;;;9.57;6.45;;;13.50;99.90;;;;;;5023536;28;20045;-79
2022/09/27 06:56:36;;;;;;;9.70;6.63;;;13.50;99.90;;;;;;5021533;28;20033;-79
2022/09/27 07:01:46;;;;;;;14.60;9.40;;;13.60;99.90;;;;;;5023240;28;20098;-81
2022/09/27 07:04:12;;;;;;;10.68;7.13;;;13.70;99.90;;;;;;5022403;28;20030;-79
2022/09/27 07:06:37;;;;;;;9.93;7.03;;;13.70;99.90;;;;;;5022510;28;20494;-81
2022/09/27 07:09:05;;;;;;;9.75;6.18;;;13.70;99.90;;;;;;5024076;28;20025;-78
2022/09/27 07:11:35;;;;;;;8.57;5.82;;;13.80;99.90;;;;;;5030036;28;20394;-76
2022/09/27 07:14:02;;;;;;;7.85;5.65;;;13.70;99.90;;;;;;5023830;28;20049;-76
2022/09/27 07:16:28;;;;;;;8.52;5.90;;;13.80;99.90;;;;;;5022333;28;20030;-77
2022/09/27 07:18:54;;;;;;;7.85;4.85;;;13.90;99.90;;;;;;5024313;28;20399;-77
2022/09/27 07:21:19;;;;;;;7.50;5.18;;;14.10;99.90;;;;;;5022510;28;20449;-79
2022/09/27 07:23:45;;;;;;;7.70;4.82;;;14.20;99.90;;;;;;5024934;28;20361;-77
2022/09/27 07:26:11;;;;;;;14.30;4.22;;;14.30;99.90;;;;;;5023564;28;20044;-77
2022/09/27 07:28:40;;;;;;;24.33;4.18;;;14.50;99.90;;;;;;5026467;28;20025;-78
2022/09/27 07:31:08;;;;;;;4.80;2.80;;;14.60;99.90;;;;;;5028998;28;20040;-77
2022/09/27 07:33:34;;;;;;;4.32;2.55;;;14.70;99.90;;;;;;5028794;28;20029;-77
2022/09/27 07:36:05;;;;;;;4.75;2.67;;;14.80;99.90;;;;;;5027670;28;20072;-77
2022/09/27 07:38:31;;;;;;;4.65;2.78;;;14.80;99.90;;;;;;5031227;28;20037;-75
2022/09/27 07:40:58;;;;;;;5.53;3.47;;;14.80;99.90;;;;;;5027801;28;20086;-76
2022/09/27 07:43:23;;;;;;;6.82;3.53;;;14.80;99.90;;;;;;5030272;28;20120;-77
2022/09/27 07:45:49;;;;;;;5.70;3.78;;;14.80;99.90;;;;;;5033908;28;20485;-77
2022/09/27 07:48:16;;;;;;;4.88;3.13;;;14.80;99.90;;;;;;5026755;28;20036;-74
2022/09/27 07:50:42;;;;;;;7.53;2.95;;;14.90;99.90;;;;;;5026964;28;20029;-77
2022/09/27 07:53:11;;;;;;;4.45;2.63;;;15.00;99.90;;;;;;5027900;28;20393;-77
2022/09/27 07:55:37;;;;;;;4.75;2.60;;;15.10;99.90;;;;;;5027275;28;20049;-76
2022/09/27 07:58:04;;;;;;;4.93;2.80;;;15.20;99.90;;;;;;5027376;28;20068;-77
2022/09/27 08:00:30;;;;;;;6.07;2.72;;;15.10;99.90;;;;;;5027059;28;20053;-76
2022/09/27 08:02:56;;;;;;;6.75;2.80;;;15.00;99.90;;;;;;5029054;28;20065;-74
2022/09/27 08:05:21;;;;;;;4.72;2.83;;;15.10;99.90;;;;;;5026703;28;20494;-75
2022/09/27 08:07:53;;;;;;;5.28;2.60;;;15.10;99.90;;;;;;5027364;28;20544;-75
2022/09/27 08:10:18;;;;;;;5.15;2.90;;;15.20;99.90;;;;;;5028197;28;20575;-73
2022/09/27 08:12:44;;;;;;;5.03;3.03;;;15.40;99.90;;;;;;5028209;28;20148;-74
2022/09/27 08:15:10;;;;;;;5.40;3.35;;;15.50;99.90;;;;;;5026716;28;20048;-75
2022/09/27 08:17:35;;;;;;;5.97;2.92;;;15.50;99.90;;;;;;5027882;28;20124;-74
2022/09/27 08:20:05;;;;;;;6.22;2.72;;;15.50;99.90;;;;;;5026674;28;20109;-75
2022/09/27 08:22:30;;;;;;;4.25;2.58;;;15.30;99.90;;;;;;5026836;28;20033;-75
2022/09/27 08:24:56;;;;;;;4.40;2.80;;;15.30;99.90;;;;;;5028263;28;20934;-75
2022/09/27 08:27:22;;;;;;;4.47;2.60;;;15.40;99.90;;;;;;5027123;28;20022;-75
2022/09/27 08:29:48;;;;;;;4.80;2.75;;;15.50;99.90;;;;;;5026608;28;20057;-74
2022/09/27 08:32:15;;;;;;;6.15;2.88;;;15.60;99.90;;;;;;5027825;28;20671;-74
2022/09/27 08:34:41;;;;;;;3.97;2.33;;;15.40;99.90;;;;;;5027874;28;20032;-75
2022/09/27 08:37:06;;;;;;;4.97;2.70;;;15.50;99.90;;;;;;5026523;28;20025;-75
2022/09/27 08:39:32;;;;;;;4.18;2.50;;;15.50;99.90;;;;;;5027282;28;20041;-75
2022/09/27 08:42:00;;;;;;;4.90;2.38;;;15.40;99.90;;;;;;5025341;28;20053;-75
2022/09/27 08:44:35;;;;;;;4.53;2.55;;;15.30;99.90;;;;;;5035035;28;20029;-75
2022/09/27 08:47:11;;;;;;;8.50;3.17;;;15.30;99.90;;;;;;5039462;28;20036;-75
2022/09/27 08:49:42;;;;;;;4.90;2.80;;;15.30;99.90;;;;;;5035950;28;20063;-75
2022/09/27 08:52:34;;;;;;;6.00;2.80;;;15.30;99.90;;;;;;5031668;28;20057;-75
2022/09/27 08:55:04;;;;;;;4.90;2.60;;;15.40;99.90;;;;;;5039684;28;20435;-77
2022/09/27 08:57:30;;;;;;;4.50;2.50;;;15.70;99.90;;;;;;5025679;28;20095;-75
2022/09/27 09:00:07;;;;;;;3.83;1.95;;;15.80;99.90;;;;;;5026838;28;20387;-75
2022/09/27 09:02:35;;;;;;;4.22;2.03;;;15.80;99.90;;;;;;5027197;28;20096;-75
2022/09/27 09:05:15;;;;;;;3.08;1.88;;;15.80;99.90;;;;;;5025751;28;20037;-74
2022/09/27 09:08:22;;;;;;;5.43;2.42;;;15.90;99.90;;;;;;5032943;28;20071;-74
2022/09/27 09:14:18;;;;;;;4.20;2.55;;;16.00;99.90;;;;;;5025981;28;20063;-77
2022/09/27 09:16:48;;;;;;;3.67;2.05;;;15.70;99.90;;;;;;5021251;28;20391;-76
2022/09/27 09:19:32;;;;;;;4.43;1.92;;;15.70;99.90;;;;;;5026306;28;20030;-76
2022/09/27 09:22:45;;;;;;;3.95;2.00;;;15.80;99.90;;;;;;5027327;28;20041;-76
2022/09/27 09:25:38;;;;;;;3.55;1.80;;;16.00;99.90;;;;;;5022402;28;20038;-76
2022/09/27 09:28:26;;;;;;;2.80;1.48;;;16.30;99.90;;;;;;5026330;28;20538;-76
2022/09/27 09:31:14;;;;;;;3.03;1.65;;;16.60;99.90;;;;;;5025673;28;20493;-76
2022/09/27 09:33:49;;;;;;;5.68;2.38;;;16.30;99.90;;;;;;5026711;28;20072;-76
2022/09/27 09:36:39;;;;;;;4.32;1.85;;;16.60;99.90;;;;;;5031908;28;20549;-76
2022/09/27 09:39:25;;;;;;;4.00;1.42;;;16.80;99.90;;;;;;5027813;28;20597;-77
2022/09/27 09:42:13;;;;;;;3.47;1.50;;;16.80;99.90;;;;;;5031558;28;20100;-76
2022/09/27 09:44:57;;;;;;;2.67;1.50;;;16.80;99.90;;;;;;5025989;28;20108;-76
2022/09/27 09:47:29;;;;;;;5.45;1.88;;;16.90;99.90;;;;;;5026465;28;20513;-76
2022/09/27 09:50:03;;;;;;;3.25;1.55;;;16.90;99.90;;;;;;5025275;28;20032;-76
2022/09/27 09:52:42;;;;;;;3.20;1.17;;;17.00;99.90;;;;;;5027685;28;20033;-76
2022/09/27 09:55:22;;;;;;;2.65;1.45;;;16.90;99.90;;;;;;5024599;28;20155;-77
2022/09/27 09:58:12;;;;;;;2.20;1.17;;;17.00;99.90;;;;;;5025139;28;20026;-77
2022/09/27 10:00:40;;;;;;;2.55;1.23;;;17.10;99.90;;;;;;5031841;28;20121;-76
2022/09/27 10:03:06;;;;;;;2.17;1.02;;;17.20;99.90;;;;;;5031718;28;20353;-77
2022/09/27 10:05:32;;;;;;;2.25;1.08;;;17.10;99.90;;;;;;5025674;28;20120;-76
2022/09/27 10:08:03;;;;;;;2.10;0.90;;;17.30;99.90;;;;;;5026049;28;20053;-77
2022/09/27 10:10:29;;;;;;;2.88;1.30;;;17.30;99.90;;;;;;5031527;28;20609;-76
2022/09/27 10:12:56;;;;;;;2.58;1.20;;;17.30;99.90;;;;;;5024455;28;20049;-76
2022/09/27 10:15:26;;;;;;;2.55;1.10;;;17.50;99.90;;;;;;5024159;28;20060;-77
2022/09/27 10:17:55;;;;;;;3.40;1.65;;;17.50;99.90;;;;;;5028522;28;20040;-75
2022/09/27 10:20:30;;;;;;;3.25;1.63;;;17.70;99.90;;;;;;5024552;28;20049;-76
2022/09/27 10:23:13;;;;;;;;;;;17.70;99.90;;;;;;5025744;28;20065;-76
2022/09/27 10:25:51;;;;;;;3.28;1.55;;;17.50;99.90;;;;;;5026662;28;19955;-76
2022/09/27 10:28:54;;;;;;;3.33;1.65;;;18.00;99.90;;;;;;5026247;28;20108;-77
2022/09/27 10:31:21;;;;;;;2.05;1.08;;;18.20;99.90;;;;;;5023569;28;20034;-76
2022/09/27 10:34:01;;;;;;;3.30;1.75;;;18.40;99.90;;;;;;5024249;28;20038;-76
2022/09/27 10:36:33;;;;;;;5.50;2.30;;;18.30;99.90;;;;;;5023193;28;20025;-76
2022/09/27 10:39:03;;;;;;;4.88;2.50;;;18.40;99.90;;;;;;5024417;28;20029;-76
2022/09/27 10:41:35;;;;;;;3.97;2.38;;;18.40;99.90;;;;;;5024303;28;20025;-76
2022/09/27 10:44:16;;;;;;;4.53;2.25;;;18.40;99.90;;;;;;5037756;28;20040;-76
2022/09/27 10:46:45;;;;;;;6.70;2.22;;;18.50;99.90;;;;;;5024134;28;20033;-76
2022/09/27 10:49:20;;;;;;;3.97;2.00;;;18.10;99.90;;;;;;5025667;28;20551;-76
2022/09/27 10:51:52;;;;;;;5.00;1.88;;;17.70;99.90;;;;;;5025252;28;20395;-77
2022/09/27 10:54:23;;;;;;;3.97;2.33;;;17.60;99.90;;;;;;5028430;28;20033;-77
2022/09/27 10:57:12;;;;;;;3.72;2.08;;;17.50;99.90;;;;;;5028076;28;20048;-76
2022/09/27 10:59:41;;;;;;;4.70;2.55;;;17.40;99.90;;;;;;5028196;28;20068;-76
2022/09/27 11:02:31;;;;;;;3.25;1.60;;;17.80;99.90;;;;;;5024261;28;20040;-77
2022/09/27 11:05:03;;;;;;;6.55;2.13;;;18.30;99.90;;;;;;5025736;28;20022;-76
2022/09/27 11:07:29;;;;;;;4.32;1.98;;;18.40;99.90;;;;;;5033184;28;20148;-76
2022/09/27 11:10:01;;;;;;;5.88;1.80;;;18.80;99.90;;;;;;5029675;28;20044;-76
2022/09/27 11:12:29;;;;;;;2.90;1.52;;;18.80;99.60;;;;;;5023709;28;20111;-77
2022/09/27 11:15:02;;;;;;;3.17;1.20;;;19.00;99.90;;;;;;5024598;28;20029;-76
2022/09/27 11:17:32;;;;;;;5.82;2.13;;;19.10;98.70;;;;;;5027003;28;20472;-76
2022/09/27 11:20:13;;;;;;;2.45;1.40;;;19.10;98.90;;;;;;5024597;28;20076;-76
2022/09/27 11:23:16;;;;;;;3.40;1.42;;;19.40;99.40;;;;;;5023438;28;20033;-76
2022/09/27 11:25:54;;;;;;;3.80;1.70;;;19.10;98.80;;;;;;5030943;28;20025;-76
2022/09/27 11:28:50;;;;;;;4.10;1.50;;;18.70;98.40;;;;;;5024912;28;20040;-76
2022/09/27 11:31:54;;;;;;;2.30;1.20;;;18.40;98.90;;;;;;5023237;28;20490;-76
2022/09/27 11:34:20;;;;;;;2.80;1.40;;;18.40;98.50;;;;;;5023549;28;20119;-76
2022/09/27 11:37:07;;;;;;;2.00;1.08;;;18.30;98.50;;;;;;5029951;28;20118;-76
2022/09/27 11:40:05;;;;;;;2.15;1.17;;;18.00;98.30;;;;;;5025609;28;20033;-76
2022/09/27 11:42:51;;;;;;;4.97;0.85;;;18.10;99.10;;;;;;5023206;28;20018;-76
2022/09/27 11:45:32;;;;;;;2.78;1.20;;;18.40;98.60;;;;;;5023109;28;20491;-76
2022/09/27 11:48:06;;;;;;;5.45;1.40;;;18.50;98.90;;;;;;5025536;28;20113;-76
2022/09/27 11:50:41;;;;;;;3.53;1.40;;;18.90;99.10;;;;;;5023457;28;20029;-76
2022/09/27 11:53:21;;;;;;;2.72;1.10;;;18.60;97.60;;;;;;5027238;28;20459;-76
2022/09/27 11:56:26;;;;;;;4.28;1.00;;;18.70;98.10;;;;;;5023367;28;20042;-76
2022/09/27 11:59:28;;;;;;;2.65;0.90;;;19.10;98.50;;;;;;5027329;28;20041;-76
2022/09/27 12:02:20;;;;;;;2.42;1.10;;;19.10;98.30;;;;;;5023074;28;20026;-76
2022/09/27 12:05:10;;;;;;;2.22;1.38;;;19.30;97.80;;;;;;5023863;28;20361;-76
2022/09/27 12:07:49;;;;;;;2.03;1.02;;;19.30;97.30;;;;;;5023468;28;20021;-76
2022/09/27 12:10:16;;;;;;;2.53;1.23;;;18.70;97.60;;;;;;5023326;28;20025;-76
2022/09/27 12:12:49;;;;;;;3.08;1.10;;;18.70;98.00;;;;;;5022479;28;20634;-76
2022/09/27 12:15:25;;;;;;;3.30;1.10;;;18.70;97.40;;;;;;5028719;28;20030;-76
2022/09/27 12:18:19;;;;;;;3.33;1.20;;;19.00;97.80;;;;;;5027313;28;20087;-76
2022/09/27 12:20:45;;;;;;;2.60;1.00;;;19.40;97.70;;;;;;5021836;28;20103;-76
2022/09/27 12:23:47;;;;;;;3.08;1.13;;;19.30;97.10;;;;;;5026216;28;20037;-76
2022/09/27 12:26:19;;;;;;;2.80;1.33;;;18.90;96.90;;;;;;5025180;28;20045;-76
2022/09/27 12:28:51;;;;;;;2.10;1.02;;;18.40;97.90;;;;;;5025855;28;20610;-76
2022/09/27 12:31:35;;;;;;;1.92;0.93;;;18.40;98.20;;;;;;5038312;28;20037;-76
2022/09/27 12:34:16;;;;;;;2.38;1.10;;;18.40;97.80;;;;;;5027479;28;20037;-76
2022/09/27 12:36:48;;;;;;;1.88;0.80;;;18.40;97.40;;;;;;5027359;28;20021;-76
2022/09/27 12:39:20;;;;;;;1.30;0.90;;;18.40;97.40;;;;;;5026785;28;20094;-76
2022/09/27 12:41:59;;;;;;;1.75;0.98;;;18.60;97.60;;;;;;5026427;28;20612;-76
2022/09/27 12:44:27;;;;;;;2.45;1.20;;;18.70;96.60;;;;;;5033938;28;20079;-76
2022/09/27 12:47:03;;;;;;;2.45;1.15;;;18.90;97.30;;;;;;5027757;28;20040;-76
2022/09/27 12:49:34;;;;;;;3.03;1.35;;;19.30;97.10;;;;;;5027856;28;20043;-76
2022/09/27 12:52:06;;;;;;;4.18;1.13;;;19.20;97.10;;;;;;5026382;28;20057;-76
2022/09/27 12:55:01;;;;;;;3.35;1.73;;;19.30;97.30;;;;;;5026249;28;20235;-76
2022/09/27 12:57:41;;;;;;;3.70;1.15;;;19.30;97.20;;;;;;5039632;28;20038;-76
2022/09/27 13:00:11;;;;;;;2.53;0.90;;;19.40;96.70;;;;;;5026111;28;20487;-76
2022/09/27 13:03:11;;;;;;;2.30;1.15;;;19.70;97.70;;;;;;5026350;28;20033;-76
2022/09/27 13:06:31;;;;;;;2.03;1.08;;;19.90;97.00;;;;;;5033644;28;20041;-76
2022/09/27 13:09:05;;;;;;;1.48;0.68;;;19.70;96.00;;;;;;5040664;28;20029;-76
2022/09/27 13:12:16;;;;;;;2.45;1.20;;;19.70;96.90;;;;;;5039483;28;20041;-76
2022/09/27 13:14:57;;;;;;;1.90;0.90;;;19.30;96.80;;;;;;5031117;28;20060;-76
2022/09/27 13:17:39;;;;;;;2.10;1.08;;;19.00;96.80;;;;;;5025759;28;20033;-76
2022/09/27 13:20:26;;;;;;;2.13;1.05;;;18.80;97.10;;;;;;5025915;28;20049;-76
2022/09/27 13:22:53;;;;;;;1.85;0.85;;;18.60;97.10;;;;;;5025666;28;20030;-75